Alt de San Felipe, Puerto Rico
Current Conditions -  °F | °C
As of 8:50 PM on Sunday 21 Dec 2014 (Local Time) from TJBQ Reporting Station
Clear Clear  
Wind Chill: 23°   Ceiling: Unl
Heat Index: 23°   Visibility: 10mi
Dew Point: 18°   Wind: 7mph
Humidity: 73%   Direction: 110°ESE
Pressure: 30.08"   Gusts: NA
Location:  18.4739°N, 66.7295°W
Report Text: TJBQ 220050Z 11006KT 10SM SKC 23/18 A3008 RMK RWY 8 ATIS J
Loading
Personal Weather Stations






























Interactive Weather Map New forecast layout! Learn more

10-Day Weather Forecast

Advertisements
Track Severe Weather on mobile